Time;durP1;ratioP1;P1;durP2;ratioP2;P2;SDS_P1;SDS_P2;PMS_P1;PMS_P2;Temp;Humidity;BMP_temperature;BMP_pressure;BME280_temperature;BME280_humidity;BME280_pressure;Samples;Min_cycle;Max_cycle;Signal;HPM_P1;HPM_P2
2022/06/02 00:01:07;;;;;;;4.80;2.60;;;;;;;;;;5047168;28;20224;-85
2022/06/02 00:03:37;;;;;;;2.15;2.03;;;;;;;;;;5041946;28;20198;-86
2022/06/02 00:06:12;;;;;;;2.08;1.88;;;;;;;;;;5043036;28;20195;-86
2022/06/02 00:08:47;;;;;;;1.92;1.50;;;;;;;;;;5047181;28;20729;-87
2022/06/02 00:11:22;;;;;;;1.80;1.70;;;;;;;;;;5049152;28;20187;-87
2022/06/02 00:13:56;;;;;;;1.65;1.20;;;;;;;;;;5043382;28;20199;-85
2022/06/02 00:16:27;;;;;;;1.52;1.40;;;;;;;;;;5040348;28;20200;-87
2022/06/02 00:18:56;;;;;;;1.52;1.42;;;;;;;;;;5043774;28;20204;-86
2022/06/02 00:21:26;;;;;;;1.88;1.75;;;;;;;;;;5048710;28;20203;-86
2022/06/02 00:23:56;;;;;;;2.20;2.00;;;;;;;;;;5035049;28;20211;-86
2022/06/02 00:26:29;;;;;;;2.17;1.98;;;;;;;;;;5040498;28;20194;-86
2022/06/02 00:29:01;;;;;;;2.08;1.88;;;;;;;;;;5043760;28;20199;-85
2022/06/02 00:31:33;;;;;;;2.47;1.88;;;;;;;;;;5050744;28;20202;-86
2022/06/02 00:34:03;;;;;;;1.65;1.55;;;;;;;;;;5046021;28;20551;-86
2022/06/02 00:36:34;;;;;;;1.90;1.70;;;;;;;;;;5046995;28;20590;-86
2022/06/02 00:39:03;;;;;;;1.60;1.50;;;;;;;;;;5049394;28;20195;-85
2022/06/02 00:41:34;;;;;;;1.42;1.33;;;;;;;;;;5041877;28;20302;-86
2022/06/02 00:44:09;;;;;;;1.60;1.40;;;;;;;;;;5042644;28;20600;-86
2022/06/02 00:46:47;;;;;;;1.88;1.73;;;;;;;;;;5046828;28;20332;-86
2022/06/02 00:49:19;;;;;;;2.00;1.80;;;;;;;;;;5046249;28;20730;-86
2022/06/02 00:51:50;;;;;;;2.03;1.83;;;;;;;;;;5042731;28;20204;-87
2022/06/02 00:57:34;;;;;;;2.30;1.80;;;;;;;;;;5036401;28;20198;-85
2022/06/02 01:00:05;;;;;;;2.80;1.70;;;;;;;;;;5049600;28;20303;-85
2022/06/02 01:02:34;;;;;;;4.07;1.55;;;;;;;;;;5044474;28;20192;-85
2022/06/02 01:05:02;;;;;;;1.88;1.77;;;;;;;;;;5042007;28;20560;-85
2022/06/02 01:07:37;;;;;;;1.88;1.60;;;;;;;;;;5038342;28;20197;-85
2022/06/02 01:10:11;;;;;;;3.20;1.70;;;;;;;;;;5036939;28;20222;-85
2022/06/02 01:12:56;;;;;;;1.60;1.42;;;;;;;;;;5045774;28;20198;-85
2022/06/02 01:15:29;;;;;;;1.60;1.50;;;;;;;;;;5041432;28;20198;-84
2022/06/02 01:18:02;;;;;;;1.70;1.60;;;;;;;;;;5049475;28;20865;-84
2022/06/02 01:20:33;;;;;;;2.22;2.03;;;;;;;;;;5043294;28;20224;-84
2022/06/02 01:23:10;;;;;;;2.30;1.77;;;;;;;;;;5036149;28;20662;-85
2022/06/02 01:25:46;;;;;;;2.33;2.13;;;;;;;;;;5038674;28;20211;-85
2022/06/02 01:28:31;;;;;;;2.08;1.88;;;;;;;;;;5036940;28;20198;-84
2022/06/02 01:31:04;;;;;;;2.22;2.03;;;;;;;;;;5047411;28;20195;-85
2022/06/02 01:33:36;;;;;;;1.40;1.30;;;;;;;;;;5045155;28;20198;-83
2022/06/02 01:36:09;;;;;;;2.15;1.95;;;;;;;;;;5040719;28;20213;-84
2022/06/02 01:38:44;;;;;;;2.35;2.15;;;;;;;;;;5043229;28;20198;-83
2022/06/02 01:41:15;;;;;;;1.50;1.40;;;;;;;;;;5047367;28;20580;-83
2022/06/02 01:43:47;;;;;;;1.45;1.35;;;;;;;;;;5038403;28;20206;-83
2022/06/02 01:46:23;;;;;;;1.45;1.35;;;;;;;;;;5046114;28;20646;-83
2022/06/02 01:48:56;;;;;;;2.05;1.75;;;;;;;;;;5040595;28;20206;-83
2022/06/02 01:51:27;;;;;;;2.03;1.83;;;;;;;;;;5047604;28;20226;-84
2022/06/02 01:54:00;;;;;;;2.10;1.95;;;;;;;;;;5042519;28;20213;-83
2022/06/02 01:56:48;;;;;;;1.95;1.80;;;;;;;;;;5039653;28;20662;-84
2022/06/02 01:59:25;;;;;;;1.90;1.80;;;;;;;;;;5035718;28;20321;-84
2022/06/02 02:01:57;;;;;;;1.88;1.77;;;;;;;;;;5049371;28;20207;-85
2022/06/02 02:04:30;;;;;;;1.67;1.55;;;;;;;;;;5049718;28;20194;-85
2022/06/02 02:06:59;;;;;;;1.85;1.75;;;;;;;;;;5041070;28;20569;-86
2022/06/02 02:09:32;;;;;;;1.65;1.55;;;;;;;;;;5047131;28;20199;-86
2022/06/02 02:12:00;;;;;;;1.50;1.40;;;;;;;;;;5043380;28;20201;-86
2022/06/02 02:14:35;;;;;;;2.30;2.10;;;;;;;;;;5037170;28;20195;-86
2022/06/02 02:17:09;;;;;;;2.47;1.90;;;;;;;;;;5041316;28;20207;-85
2022/06/02 02:19:40;;;;;;;2.05;1.88;;;;;;;;;;5047454;28;20658;-85
2022/06/02 02:22:11;;;;;;;1.75;1.63;;;;;;;;;;5034276;28;20192;-85
2022/06/02 02:24:47;;;;;;;1.83;1.70;;;;;;;;;;5051323;28;20203;-86
2022/06/02 02:27:19;;;;;;;2.30;2.10;;;;;;;;;;5039883;28;20195;-86
2022/06/02 02:29:49;;;;;;;2.13;1.95;;;;;;;;;;5047650;28;20206;-86
2022/06/02 02:32:22;;;;;;;1.80;1.70;;;;;;;;;;5039802;28;20203;-86
2022/06/02 02:34:54;;;;;;;1.40;1.20;;;;;;;;;;5051550;28;20207;-86
2022/06/02 02:37:26;;;;;;;1.70;1.60;;;;;;;;;;5045096;28;20203;-85
2022/06/02 02:39:55;;;;;;;2.47;2.28;;;;;;;;;;5048759;28;20202;-86
2022/06/02 02:42:25;;;;;;;2.45;1.55;;;;;;;;;;5044465;28;20717;-86
2022/06/02 02:45:02;;;;;;;2.30;1.88;;;;;;;;;;5045388;28;20208;-86
2022/06/02 02:47:32;;;;;;;2.40;2.10;;;;;;;;;;5043527;28;20207;-86
2022/06/02 02:50:05;;;;;;;1.80;1.70;;;;;;;;;;5047656;28;20196;-87
2022/06/02 02:52:38;;;;;;;1.80;1.70;;;;;;;;;;5044845;28;20567;-86
2022/06/02 02:55:06;;;;;;;2.05;1.85;;;;;;;;;;5043835;28;20202;-86
2022/06/02 02:57:39;;;;;;;1.67;1.58;;;;;;;;;;5049316;28;20198;-86
2022/06/02 03:00:08;;;;;;;2.67;1.65;;;;;;;;;;5051999;28;20218;-89
2022/06/02 03:02:43;;;;;;;1.52;1.42;;;;;;;;;;5044937;28;20195;-89
2022/06/02 03:05:14;;;;;;;3.28;2.00;;;;;;;;;;5042824;28;20686;-89
2022/06/02 03:07:41;;;;;;;2.08;1.88;;;;;;;;;;5053756;28;20202;-91
2022/06/02 03:10:11;;;;;;;2.10;1.90;;;;;;;;;;5044078;28;20208;-85
2022/06/02 03:12:57;;;;;;;1.80;1.70;;;;;;;;;;5041423;28;20205;-83
2022/06/02 03:15:27;;;;;;;2.15;1.92;;;;;;;;;;5044919;28;20555;-86
2022/06/02 03:18:08;;;;;;;2.13;1.90;;;;;;;;;;5045582;28;20586;-84
2022/06/02 03:20:42;;;;;;;1.77;1.67;;;;;;;;;;5043100;28;20222;-85
2022/06/02 03:23:21;;;;;;;2.20;1.90;;;;;;;;;;5038702;28;20198;-85
2022/06/02 03:25:51;;;;;;;2.03;1.77;;;;;;;;;;5048743;28;20616;-85
2022/06/02 03:28:22;;;;;;;2.78;2.17;;;;;;;;;;5047830;28;20601;-85
2022/06/02 03:30:52;;;;;;;1.90;1.80;;;;;;;;;;5039683;28;20224;-83
2022/06/02 03:33:36;;;;;;;1.80;1.70;;;;;;;;;;5050316;28;20202;-85
2022/06/02 03:36:12;;;;;;;2.35;2.15;;;;;;;;;;5042166;28;20207;-83
2022/06/02 03:38:52;;;;;;;2.22;2.00;;;;;;;;;;5041752;28;20202;-83
2022/06/02 03:41:24;;;;;;;1.95;1.75;;;;;;;;;;5040169;28;20235;-84
2022/06/02 03:43:53;;;;;;;2.47;2.28;;;;;;;;;;5042379;28;20693;-84
2022/06/02 03:46:26;;;;;;;2.05;1.85;;;;;;;;;;5045087;28;20641;-83
2022/06/02 03:49:05;;;;;;;2.85;2.55;;;;;;;;;;5047008;28;20192;-83
2022/06/02 03:51:42;;;;;;;2.40;2.15;;;;;;;;;;5041464;28;20199;-88
2022/06/02 03:54:21;;;;;;;3.17;2.60;;;;;;;;;;5046725;28;20283;-87
2022/06/02 03:57:06;;;;;;;2.10;1.90;;;;;;;;;;5051746;28;20209;-87
2022/06/02 03:59:44;;;;;;;2.45;2.25;;;;;;;;;;5042162;28;20218;-88
2022/06/02 04:02:13;;;;;;;2.30;2.15;;;;;;;;;;5044947;28;20237;-87
2022/06/02 04:04:46;;;;;;;4.05;2.03;;;;;;;;;;5044911;28;20206;-86
2022/06/02 04:07:23;;;;;;;2.10;1.90;;;;;;;;;;5044182;28;20195;-85
2022/06/02 04:09:52;;;;;;;3.42;2.30;;;;;;;;;;5033042;28;20234;-86
2022/06/02 04:15:17;;;;;;;2.00;1.90;;;;;;;;;;5036417;28;20632;-86
2022/06/02 04:17:48;;;;;;;2.78;2.58;;;;;;;;;;5048718;28;20188;-86
2022/06/02 04:20:36;;;;;;;3.08;2.88;;;;;;;;;;5043733;28;20199;-85
2022/06/02 04:23:22;;;;;;;2.40;2.20;;;;;;;;;;5037386;28;20209;-85
2022/06/02 04:25:53;;;;;;;2.50;2.10;;;;;;;;;;5043809;28;20198;-84
2022/06/02 04:28:25;;;;;;;3.15;2.15;;;;;;;;;;5040752;28;20191;-85
2022/06/02 04:30:57;;;;;;;2.50;2.30;;;;;;;;;;5047536;28;20295;-84
2022/06/02 04:33:29;;;;;;;2.90;2.58;;;;;;;;;;5045148;28;20217;-84
2022/06/02 04:36:01;;;;;;;2.40;2.20;;;;;;;;;;5045531;28;20210;-84
2022/06/02 04:38:32;;;;;;;2.20;2.00;;;;;;;;;;5046422;28;20203;-83
2022/06/02 04:41:04;;;;;;;2.10;1.90;;;;;;;;;;5051668;28;20218;-84
2022/06/02 04:43:35;;;;;;;2.40;2.20;;;;;;;;;;5042626;28;20214;-84
2022/06/02 04:46:06;;;;;;;2.70;2.50;;;;;;;;;;5042591;28;20714;-83
2022/06/02 04:48:37;;;;;;;2.70;2.50;;;;;;;;;;5040884;28;20301;-83
2022/06/02 04:51:10;;;;;;;2.95;2.65;;;;;;;;;;5045979;28;20206;-81
2022/06/02 04:53:42;;;;;;;2.75;2.55;;;;;;;;;;5038383;28;20222;-85
2022/06/02 04:56:14;;;;;;;3.42;3.13;;;;;;;;;;5039016;28;20569;-84
2022/06/02 04:58:46;;;;;;;4.32;3.00;;;;;;;;;;5037010;28;20214;-83
2022/06/02 05:01:21;;;;;;;2.85;2.60;;;;;;;;;;5049997;28;20218;-85
2022/06/02 05:03:52;;;;;;;2.47;2.28;;;;;;;;;;5048702;28;20203;-86
2022/06/02 05:06:22;;;;;;;3.22;3.03;;;;;;;;;;5045900;28;20194;-85
2022/06/02 05:08:55;;;;;;;3.15;2.95;;;;;;;;;;5043212;28;20203;-86
2022/06/02 05:11:30;;;;;;;2.78;2.58;;;;;;;;;;5044451;28;20191;-85
2022/06/02 05:14:03;;;;;;;3.17;2.88;;;;;;;;;;5035198;28;20783;-85
2022/06/02 05:16:39;;;;;;;3.00;2.80;;;;;;;;;;5048842;28;20202;-83
2022/06/02 05:19:24;;;;;;;4.68;4.03;;;;;;;;;;5041261;28;20203;-84
2022/06/02 05:22:01;;;;;;;4.20;3.40;;;;;;;;;;5040226;28;20226;-84
2022/06/02 05:24:45;;;;;;;4.45;4.05;;;;;;;;;;5044263;28;20565;-89
2022/06/02 05:27:20;;;;;;;5.40;4.88;;;;;;;;;;5036015;28;20199;-85
2022/06/02 05:30:00;;;;;;;3.72;3.42;;;;;;;;;;5038852;28;20198;-88
2022/06/02 05:32:35;;;;;;;3.83;3.38;;;;;;;;;;5042651;28;20214;-85
2022/06/02 05:35:12;;;;;;;3.45;2.97;;;;;;;;;;5039925;28;20206;-89
2022/06/02 05:37:47;;;;;;;2.03;1.92;;;;;;;;;;5040026;28;20213;-88
2022/06/02 05:40:17;;;;;;;2.75;2.55;;;;;;;;;;5054273;28;20320;-88
2022/06/02 05:42:51;;;;;;;2.83;2.40;;;;;;;;;;5037842;28;20246;-88
2022/06/02 05:45:23;;;;;;;2.80;2.53;;;;;;;;;;5044330;28;20245;-88
2022/06/02 05:48:00;;;;;;;2.17;1.98;;;;;;;;;;5049978;28;20191;-91
2022/06/02 05:50:31;;;;;;;2.60;2.40;;;;;;;;;;5050337;28;20196;-86
2022/06/02 05:53:02;;;;;;;2.33;2.13;;;;;;;;;;5047782;28;20205;-89
2022/06/02 05:55:32;;;;;;;1.95;1.83;;;;;;;;;;5049961;28;20194;-87
2022/06/02 05:58:06;;;;;;;2.50;2.30;;;;;;;;;;5046938;28;20201;-86
2022/06/02 06:00:35;;;;;;;2.60;2.38;;;;;;;;;;5049723;28;20203;-90
2022/06/02 06:03:18;;;;;;;2.20;2.00;;;;;;;;;;5048573;28;20208;-89
2022/06/02 06:05:47;;;;;;;2.10;1.90;;;;;;;;;;5046015;28;20199;-85
2022/06/02 06:08:29;;;;;;;2.00;1.80;;;;;;;;;;5035840;28;20207;-86
2022/06/02 06:11:03;;;;;;;1.90;1.70;;;;;;;;;;5054070;28;21403;-86
2022/06/02 06:13:46;;;;;;;1.95;1.63;;;;;;;;;;5040229;28;20229;-85
2022/06/02 06:16:16;;;;;;;1.92;1.70;;;;;;;;;;5041890;28;20200;-84
2022/06/02 06:18:49;;;;;;;1.83;1.73;;;;;;;;;;5046871;28;20203;-87
2022/06/02 06:21:23;;;;;;;2.30;2.10;;;;;;;;;;5047045;28;20226;-83
2022/06/02 06:24:03;;;;;;;1.92;1.80;;;;;;;;;;5043173;28;20199;-82
2022/06/02 06:26:34;;;;;;;2.40;2.20;;;;;;;;;;5048458;28;20214;-82
2022/06/02 06:29:13;;;;;;;1.67;1.58;;;;;;;;;;5049036;28;20574;-83
2022/06/02 06:31:46;;;;;;;3.50;2.10;;;;;;;;;;5046373;28;20199;-82
2022/06/02 06:34:16;;;;;;;2.22;1.73;;;;;;;;;;5044652;28;20199;-83
2022/06/02 06:36:51;;;;;;;2.45;1.92;;;;;;;;;;5042551;28;20544;-83
2022/06/02 06:39:23;;;;;;;2.10;1.90;;;;;;;;;;5050885;28;20225;-82
2022/06/02 06:42:20;;;;;;;2.20;2.00;;;;;;;;;;5036889;28;20222;-82
2022/06/02 06:44:53;;;;;;;2.33;1.70;;;;;;;;;;5005107;28;20612;-82
2022/06/02 06:47:22;;;;;;;2.03;1.70;;;;;;;;;;5035675;28;20312;-82
2022/06/02 06:49:54;;;;;;;1.60;1.50;;;;;;;;;;5049150;28;20590;-82
2022/06/02 06:52:32;;;;;;;2.78;2.13;;;;;;;;;;5048367;28;20195;-82
2022/06/02 06:55:03;;;;;;;2.10;1.85;;;;;;;;;;5048122;28;20211;-83
2022/06/02 06:57:32;;;;;;;1.88;1.60;;;;;;;;;;5051749;28;20195;-83
2022/06/02 07:00:04;;;;;;;2.03;1.65;;;;;;;;;;5050424;28;20658;-82
2022/06/02 07:02:35;;;;;;;2.10;1.50;;;;;;;;;;5044744;28;20219;-81
2022/06/02 07:05:06;;;;;;;2.53;1.63;;;;;;;;;;5042797;28;20198;-85
2022/06/02 07:07:37;;;;;;;2.00;1.50;;;;;;;;;;5051701;28;20241;-81
2022/06/02 07:10:08;;;;;;;1.88;1.52;;;;;;;;;;5041855;28;20195;-83
2022/06/02 07:12:54;;;;;;;1.58;1.48;;;;;;;;;;5044406;28;20654;-83
2022/06/02 07:15:30;;;;;;;1.92;1.50;;;;;;;;;;5043490;28;20207;-85
2022/06/02 07:17:59;;;;;;;1.98;1.50;;;;;;;;;;5045727;28;20199;-83
2022/06/02 07:20:30;;;;;;;1.40;1.30;;;;;;;;;;5047341;28;20199;-83
2022/06/02 07:23:02;;;;;;;3.70;2.03;;;;;;;;;;5052361;28;20254;-84
2022/06/02 07:25:31;;;;;;;1.40;1.30;;;;;;;;;;5038148;28;20294;-86
2022/06/02 07:28:02;;;;;;;4.25;1.77;;;;;;;;;;5051129;28;20206;-84
2022/06/02 07:30:44;;;;;;;2.47;2.10;;;;;;;;;;5047116;28;20216;-84
2022/06/02 07:33:22;;;;;;;1.90;1.40;;;;;;;;;;5040762;28;20195;-84
2022/06/02 07:35:59;;;;;;;1.83;1.27;;;;;;;;;;5047277;28;20210;-86
2022/06/02 07:38:44;;;;;;;2.88;2.58;;;;;;;;;;5044942;28;20192;-85
2022/06/02 07:41:18;;;;;;;1.58;1.40;;;;;;;;;;5036401;28;20199;-85
2022/06/02 07:44:02;;;;;;;2.22;1.77;;;;;;;;;;5036050;28;20200;-86
2022/06/02 07:46:39;;;;;;;2.28;2.03;;;;;;;;;;5051620;28;20218;-85
2022/06/02 07:49:24;;;;;;;1.67;1.58;;;;;;;;;;5053179;28;20207;-85
2022/06/02 07:51:56;;;;;;;1.40;1.30;;;;;;;;;;5051592;28;20190;-85
2022/06/02 07:54:31;;;;;;;1.50;1.40;;;;;;;;;;5042411;28;20206;-85
2022/06/02 07:57:07;;;;;;;2.38;1.60;;;;;;;;;;5052100;28;20206;-82
2022/06/02 07:59:40;;;;;;;3.35;1.40;;;;;;;;;;5043310;28;20234;-79
2022/06/02 08:02:27;;;;;;;1.35;1.02;;;;;;;;;;5032276;28;20661;-77
2022/06/02 08:05:00;;;;;;;1.73;1.13;;;;;;;;;;5051454;28;20555;-81
2022/06/02 08:07:33;;;;;;;1.85;1.10;;;;;;;;;;5050721;28;20261;-81
2022/06/02 08:10:04;;;;;;;1.27;1.17;;;;;;;;;;5046345;28;20543;-81
2022/06/02 08:12:35;;;;;;;2.45;1.40;;;;;;;;;;5043616;28;20368;-80
2022/06/02 08:15:09;;;;;;;1.58;1.33;;;;;;;;;;5039519;28;20579;-80
2022/06/02 08:17:39;;;;;;;3.17;1.48;;;;;;;;;;5032083;28;20208;-85
2022/06/02 08:20:11;;;;;;;1.60;1.38;;;;;;;;;;5040618;28;20198;-82
2022/06/02 08:22:44;;;;;;;1.70;1.30;;;;;;;;;;5034151;28;20579;-82
2022/06/02 08:25:12;;;;;;;1.25;1.15;;;;;;;;;;5038187;28;20206;-81
2022/06/02 08:27:46;;;;;;;1.40;1.10;;;;;;;;;;5046937;28;20593;-81
2022/06/02 08:30:16;;;;;;;1.40;1.20;;;;;;;;;;5041625;28;20205;-82
2022/06/02 08:32:54;;;;;;;1.50;1.40;;;;;;;;;;5034642;28;20196;-82
2022/06/02 08:35:22;;;;;;;1.77;1.10;;;;;;;;;;5052092;28;20273;-82
2022/06/02 08:37:57;;;;;;;1.50;1.40;;;;;;;;;;5047380;28;20517;-82
2022/06/02 08:40:36;;;;;;;2.55;1.30;;;;;;;;;;5043353;28;20187;-81
2022/06/02 08:43:23;;;;;;;1.10;1.00;;;;;;;;;;5048559;28;20226;-82
2022/06/02 08:45:59;;;;;;;1.10;0.90;;;;;;;;;;5050248;28;20672;-82
2022/06/02 08:48:41;;;;;;;1.50;1.40;;;;;;;;;;5050028;28;20691;-82
2022/06/02 08:51:37;;;;;;;1.65;1.38;;;;;;;;;;5050503;28;20210;-82
2022/06/02 08:54:26;;;;;;;1.30;1.20;;;;;;;;;;5049159;28;20195;-81
2022/06/02 08:57:01;;;;;;;1.20;1.10;;;;;;;;;;5043917;28;20654;-81
2022/06/02 08:59:55;;;;;;;1.80;1.48;;;;;;;;;;5043629;28;20198;-82
2022/06/02 09:02:40;;;;;;;1.45;1.10;;;;;;;;;;5043439;28;20574;-81
2022/06/02 09:05:17;;;;;;;1.25;0.90;;;;;;;;;;5031193;28;20682;-82
2022/06/02 09:07:53;;;;;;;1.20;0.93;;;;;;;;;;5038029;28;20195;-82
2022/06/02 09:10:32;;;;;;;1.23;1.10;;;;;;;;;;5046370;28;20207;-82
2022/06/02 09:13:11;;;;;;;1.35;1.25;;;;;;;;;;5043810;28;20191;-80
2022/06/02 09:15:46;;;;;;;1.75;1.20;;;;;;;;;;5030602;28;20206;-82
2022/06/02 09:18:17;;;;;;;1.05;0.93;;;;;;;;;;5042393;28;20284;-82
2022/06/02 09:20:50;;;;;;;1.30;1.20;;;;;;;;;;5047635;28;20593;-82
2022/06/02 09:23:27;;;;;;;1.48;1.10;;;;;;;;;;5046479;28;20246;-81
2022/06/02 09:26:14;;;;;;;1.25;1.08;;;;;;;;;;5050612;28;20234;-82
2022/06/02 09:28:59;;;;;;;1.63;1.25;;;;;;;;;;5044057;28;20207;-82
2022/06/02 09:31:37;;;;;;;2.13;1.27;;;;;;;;;;5043681;28;20608;-82
2022/06/02 09:34:21;;;;;;;2.40;0.90;;;;;;;;;;5046723;28;20562;-82
2022/06/02 09:37:05;;;;;;;1.73;1.10;;;;;;;;;;5044411;28;20199;-81
2022/06/02 09:39:46;;;;;;;1.77;1.02;;;;;;;;;;5039216;28;20286;-81
2022/06/02 09:42:24;;;;;;;1.30;1.00;;;;;;;;;;5042150;28;20219;-81
2022/06/02 09:44:57;;;;;;;1.27;1.05;;;;;;;;;;5037445;28;20195;-82
2022/06/02 09:47:39;;;;;;;0.95;0.85;;;;;;;;;;5047928;28;20662;-82
2022/06/02 09:50:24;;;;;;;1.17;1.08;;;;;;;;;;5033817;28;20202;-84
2022/06/02 09:53:13;;;;;;;1.15;0.95;;;;;;;;;;5035564;28;20646;-84
2022/06/02 09:55:44;;;;;;;1.83;1.20;;;;;;;;;;5040953;28;20286;-82
2022/06/02 09:58:20;;;;;;;1.42;1.33;;;;;;;;;;5030742;28;20222;-83
2022/06/02 10:00:58;;;;;;;1.75;1.23;;;;;;;;;;5046480;28;20200;-82
2022/06/02 10:03:45;;;;;;;1.27;0.90;;;;;;;;;;5041275;28;20223;-82
2022/06/02 10:06:19;;;;;;;1.20;1.10;;;;;;;;;;5038230;28;20282;-83
2022/06/02 10:08:58;;;;;;;1.30;1.02;;;;;;;;;;5042693;28;20206;-82
2022/06/02 10:11:29;;;;;;;1.35;1.25;;;;;;;;;;5048694;28;20281;-83
2022/06/02 10:14:03;;;;;;;1.05;0.93;;;;;;;;;;5050186;28;20612;-84
2022/06/02 10:16:44;;;;;;;1.00;0.90;;;;;;;;;;5046231;28;20567;-83
2022/06/02 10:19:18;;;;;;;1.30;1.15;;;;;;;;;;5040047;28;20693;-83
2022/06/02 10:21:54;;;;;;;1.17;1.00;;;;;;;;;;5039657;28;20198;-83
2022/06/02 10:24:36;;;;;;;1.10;0.90;;;;;;;;;;5039859;28;20199;-83
2022/06/02 10:27:14;;;;;;;1.20;1.00;;;;;;;;;;5042169;28;20637;-81
2022/06/02 10:29:56;;;;;;;2.05;1.20;;;;;;;;;;5039279;28;20225;-81
2022/06/02 10:32:44;;;;;;;1.13;1.02;;;;;;;;;;5043512;28;20206;-81
2022/06/02 10:35:21;;;;;;;1.50;1.20;;;;;;;;;;5024196;28;20253;-81
2022/06/02 10:37:55;;;;;;;1.33;1.20;;;;;;;;;;5039074;28;20210;-84
2022/06/02 10:40:39;;;;;;;2.15;1.17;;;;;;;;;;5052074;28;20218;-83
2022/06/02 10:43:21;;;;;;;1.20;1.10;;;;;;;;;;5042671;28;20700;-82
2022/06/02 10:46:05;;;;;;;1.30;1.13;;;;;;;;;;5047829;28;20290;-83
2022/06/02 10:48:53;;;;;;;1.73;1.20;;;;;;;;;;5046894;28;20643;-81
2022/06/02 10:51:38;;;;;;;2.22;1.27;;;;;;;;;;5036555;28;20253;-83
2022/06/02 10:54:23;;;;;;;1.77;1.55;;;;;;;;;;5045159;28;20190;-83
2022/06/02 10:57:11;;;;;;;1.20;1.10;;;;;;;;;;5026702;28;20689;-83
2022/06/02 10:59:48;;;;;;;1.52;1.42;;;;;;;;;;5042791;28;20203;-83
2022/06/02 11:02:33;;;;;;;2.53;2.25;;;;;;;;;;5046262;28;20206;-83
2022/06/02 11:05:17;;;;;;;1.58;1.48;;;;;;;;;;5047006;28;20218;-82
2022/06/02 11:07:59;;;;;;;1.52;1.42;;;;;;;;;;5042473;28;20238;-83
2022/06/02 11:10:30;;;;;;;1.70;1.48;;;;;;;;;;5053418;28;20685;-83
2022/06/02 11:13:15;;;;;;;1.67;1.50;;;;;;;;;;5050348;28;20575;-83
2022/06/02 11:15:55;;;;;;;1.40;1.30;;;;;;;;;;5042960;28;20203;-81
2022/06/02 11:18:38;;;;;;;3.92;1.40;;;;;;;;;;5042204;28;20195;-82
2022/06/02 11:21:19;;;;;;;2.00;1.35;;;;;;;;;;5026181;28;20195;-82
2022/06/02 11:24:02;;;;;;;1.63;1.10;;;;;;;;;;5044467;28;20223;-83
2022/06/02 11:26:50;;;;;;;1.10;1.00;;;;;;;;;;5040926;28;20202;-83
2022/06/02 11:29:33;;;;;;;1.30;1.20;;;;;;;;;;5045852;28;20674;-83
2022/06/02 11:32:06;;;;;;;1.40;1.30;;;;;;;;;;5049949;28;20183;-83
2022/06/02 11:34:48;;;;;;;1.27;1.17;;;;;;;;;;5047093;28;20192;-82
2022/06/02 11:37:23;;;;;;;1.30;1.20;;;;;;;;;;5034237;28;20207;-84
2022/06/02 11:40:00;;;;;;;1.88;1.30;;;;;;;;;;5043355;28;20210;-84
2022/06/02 11:42:38;;;;;;;1.38;1.10;;;;;;;;;;5036792;28;20703;-82
2022/06/02 11:45:11;;;;;;;1.17;1.00;;;;;;;;;;5030839;28;20212;-82
2022/06/02 11:47:55;;;;;;;1.15;1.05;;;;;;;;;;5045772;28;20200;-81
2022/06/02 11:50:33;;;;;;;2.00;1.65;;;;;;;;;;5038368;28;20560;-82
2022/06/02 11:53:12;;;;;;;1.23;1.13;;;;;;;;;;5043693;28;20276;-83
2022/06/02 11:55:44;;;;;;;1.27;1.17;;;;;;;;;;5031478;28;20195;-84
2022/06/02 11:58:26;;;;;;;1.50;1.20;;;;;;;;;;5054542;28;20211;-83
2022/06/02 12:01:12;;;;;;;1.40;1.30;;;;;;;;;;5038286;28;20565;-83
2022/06/02 12:03:57;;;;;;;1.35;1.25;;;;;;;;;;5036028;28;20346;-82
2022/06/02 12:06:34;;;;;;;1.88;1.20;;;;;;;;;;5030120;28;20248;-81
2022/06/02 12:09:18;;;;;;;1.75;1.10;;;;;;;;;;5037076;28;20226;-82
2022/06/02 12:12:06;;;;;;;2.85;1.63;;;;;;;;;;5036171;28;20215;-82
2022/06/02 12:14:51;;;;;;;2.58;1.45;;;;;;;;;;5033606;28;20205;-81
2022/06/02 12:17:32;;;;;;;2.08;1.48;;;;;;;;;;5038236;28;20195;-81
2022/06/02 12:20:15;;;;;;;2.20;1.42;;;;;;;;;;5034600;28;20199;-81
2022/06/02 12:22:55;;;;;;;2.00;1.80;;;;;;;;;;5031880;28;20306;-81
2022/06/02 12:25:30;;;;;;;2.45;1.20;;;;;;;;;;5035327;28;20203;-81
2022/06/02 12:28:06;;;;;;;1.90;1.30;;;;;;;;;;5036472;28;20210;-81
2022/06/02 12:30:41;;;;;;;1.85;1.23;;;;;;;;;;5035619;28;20210;-81
2022/06/02 12:33:23;;;;;;;1.20;1.10;;;;;;;;;;5034792;28;20667;-82
2022/06/02 12:36:04;;;;;;;1.77;1.40;;;;;;;;;;5035729;28;20210;-79
2022/06/02 12:38:43;;;;;;;3.92;1.30;;;;;;;;;;5037470;28;20209;-83
2022/06/02 12:41:21;;;;;;;1.30;1.20;;;;;;;;;;5038902;28;20643;-82
2022/06/02 12:44:03;;;;;;;1.73;1.10;;;;;;;;;;5035235;28;20221;-86
2022/06/02 12:46:40;;;;;;;2.08;1.45;;;;;;;;;;5035822;28;20203;-83
2022/06/02 12:49:16;;;;;;;1.30;1.17;;;;;;;;;;5044258;28;20650;-84
2022/06/02 12:51:54;;;;;;;1.20;1.10;;;;;;;;;;5034829;28;20204;-84
2022/06/02 12:54:43;;;;;;;1.10;1.00;;;;;;;;;;5051472;28;20199;-83
2022/06/02 12:57:32;;;;;;;1.58;1.33;;;;;;;;;;5032781;28;20206;-84
2022/06/02 13:00:23;;;;;;;1.38;1.10;;;;;;;;;;5035713;28;20199;-84
2022/06/02 13:03:05;;;;;;;1.92;1.10;;;;;;;;;;5013330;28;20567;-84
2022/06/02 13:05:52;;;;;;;2.28;1.83;;;;;;;;;;5043669;28;20200;-84
2022/06/02 13:08:52;;;;;;;1.17;1.08;;;;;;;;;;5036039;28;20194;-83
2022/06/02 13:11:32;;;;;;;2.47;1.20;;;;;;;;;;5044403;28;20680;-83
2022/06/02 13:14:18;;;;;;;1.55;1.30;;;;;;;;;;5045501;28;20711;-82
2022/06/02 13:17:09;;;;;;;1.63;1.20;;;;;;;;;;5044795;28;20393;-82
2022/06/02 13:19:43;;;;;;;1.55;1.00;;;;;;;;;;5039747;28;20205;-83
2022/06/02 13:22:20;;;;;;;1.73;1.25;;;;;;;;;;5040924;28;20250;-79
2022/06/02 13:25:03;;;;;;;1.67;1.17;;;;;;;;;;5034491;28;20223;-82
2022/06/02 13:28:00;;;;;;;1.10;0.95;;;;;;;;;;5044587;28;20195;-80
2022/06/02 13:30:40;;;;;;;2.00;1.73;;;;;;;;;;4986315;28;20197;-82
2022/06/02 13:33:20;;;;;;;1.85;1.50;;;;;;;;;;5031691;28;20206;-81
2022/06/02 13:36:08;;;;;;;2.95;1.45;;;;;;;;;;5044062;28;20278;-82
2022/06/02 13:38:53;;;;;;;1.83;1.10;;;;;;;;;;5046263;28;20203;-81
2022/06/02 13:41:31;;;;;;;1.35;1.00;;;;;;;;;;5036673;28;20219;-82
2022/06/02 13:44:16;;;;;;;1.48;1.08;;;;;;;;;;5037436;28;20206;-82
2022/06/02 13:47:12;;;;;;;1.00;0.90;;;;;;;;;;5043766;28;20566;-82
2022/06/02 13:49:57;;;;;;;1.65;1.48;;;;;;;;;;5030529;28;20222;-82
2022/06/02 13:52:43;;;;;;;1.40;1.15;;;;;;;;;;5041790;28;20199;-80
2022/06/02 13:58:18;;;;;;;1.15;0.90;;;;;;;;;;5042366;28;20197;-82
2022/06/02 14:00:55;;;;;;;2.35;1.00;;;;;;;;;;5039189;28;20203;-82
2022/06/02 14:03:47;;;;;;;1.05;0.95;;;;;;;;;;5037571;28;20202;-82
2022/06/02 14:06:16;;;;;;;4.95;1.17;;;;;;;;;;5046650;28;20693;-81
2022/06/02 14:09:04;;;;;;;1.20;0.90;;;;;;;;;;5043714;28;20214;-81
2022/06/02 14:11:52;;;;;;;1.10;0.80;;;;;;;;;;5045595;28;20195;-82
2022/06/02 14:14:43;;;;;;;1.10;1.00;;;;;;;;;;5042452;28;20197;-81
2022/06/02 14:17:14;;;;;;;1.10;1.00;;;;;;;;;;5044576;28;20325;-80
2022/06/02 14:20:01;;;;;;;1.30;1.00;;;;;;;;;;5049473;28;20202;-81
2022/06/02 14:22:31;;;;;;;1.40;1.05;;;;;;;;;;5042432;28;20199;-82
2022/06/02 14:25:05;;;;;;;1.55;1.10;;;;;;;;;;5048836;28;20199;-82
2022/06/02 14:27:36;;;;;;;1.80;1.10;;;;;;;;;;5054860;28;20199;-81
2022/06/02 14:30:06;;;;;;;1.10;1.00;;;;;;;;;;5035230;28;20600;-81
2022/06/02 14:32:38;;;;;;;1.30;0.98;;;;;;;;;;5051034;28;20210;-80
2022/06/02 14:35:15;;;;;;;1.90;0.90;;;;;;;;;;5050740;28;20234;-82
2022/06/02 14:37:46;;;;;;;2.30;1.10;;;;;;;;;;5050516;28;20564;-82
2022/06/02 14:40:19;;;;;;;1.50;1.10;;;;;;;;;;5035100;28;20203;-82
2022/06/02 14:43:07;;;;;;;1.25;1.08;;;;;;;;;;5049060;28;20214;-82
2022/06/02 14:45:44;;;;;;;1.65;1.20;;;;;;;;;;5040085;28;20311;-82
2022/06/02 14:48:13;;;;;;;1.40;1.30;;;;;;;;;;5034241;28;20218;-82
2022/06/02 14:50:44;;;;;;;1.30;0.90;;;;;;;;;;5037070;28;20222;-82
2022/06/02 14:53:28;;;;;;;1.00;0.90;;;;;;;;;;5032947;28;20200;-80
2022/06/02 14:56:05;;;;;;;1.33;1.00;;;;;;;;;;5039232;28;20696;-81
2022/06/02 14:58:40;;;;;;;1.20;1.00;;;;;;;;;;5044064;28;20226;-81
2022/06/02 15:01:15;;;;;;;1.20;1.08;;;;;;;;;;5040408;28;20194;-82
2022/06/02 15:04:01;;;;;;;1.10;1.00;;;;;;;;;;5039958;28;20226;-80
2022/06/02 15:06:32;;;;;;;2.05;1.10;;;;;;;;;;5035202;28;20203;-80
2022/06/02 15:09:06;;;;;;;2.70;1.30;;;;;;;;;;5040926;28;20195;-82
2022/06/02 15:11:44;;;;;;;4.30;0.90;;;;;;;;;;5043233;28;20570;-81
2022/06/02 15:14:19;;;;;;;1.15;0.90;;;;;;;;;;5043702;28;20195;-80
2022/06/02 15:16:59;;;;;;;1.55;1.17;;;;;;;;;;5045846;28;20572;-81
2022/06/02 15:19:36;;;;;;;1.52;1.27;;;;;;;;;;5045404;28;20252;-81
2022/06/02 15:22:18;;;;;;;1.08;0.98;;;;;;;;;;5040283;28;20198;-81
2022/06/02 15:24:50;;;;;;;1.20;0.90;;;;;;;;;;5040870;28;20230;-80
2022/06/02 15:27:26;;;;;;;2.55;1.17;;;;;;;;;;5042103;28;20330;-81
2022/06/02 15:30:00;;;;;;;1.50;1.20;;;;;;;;;;5041283;28;20750;-81
2022/06/02 15:32:48;;;;;;;1.30;1.10;;;;;;;;;;5047322;28;20256;-82
2022/06/02 15:35:27;;;;;;;1.20;1.00;;;;;;;;;;5039920;28;20210;-81
2022/06/02 15:38:09;;;;;;;1.20;0.90;;;;;;;;;;5042336;28;20199;-82
2022/06/02 15:40:55;;;;;;;2.28;1.27;;;;;;;;;;5044786;28;20201;-80
2022/06/02 15:43:35;;;;;;;1.00;0.90;;;;;;;;;;5037728;28;20227;-81
2022/06/02 15:46:26;;;;;;;1.60;1.50;;;;;;;;;;5036396;28;20202;-79
2022/06/02 15:49:12;;;;;;;1.65;1.50;;;;;;;;;;5022571;28;20199;-81